Time;durP1;ratioP1;P1;durP2;ratioP2;P2;SDS_P1;SDS_P2;PMS_P1;PMS_P2;Temp;Humidity;BMP_temperature;BMP_pressure;BME280_temperature;BME280_humidity;BME280_pressure;Samples;Min_cycle;Max_cycle;Signal;HPM_P1;HPM_P2
2023/06/13 00:01:19;;;;;;;;;;;;;;;-144.99;70.70;52113.84;5079630;28;20410;-68
2023/06/13 00:03:47;;;;;;;;;;;;;;;-144.99;70.62;52158.66;5082727;28;19949;-68
2023/06/13 00:06:15;;;;;;;;;;;;;;;-144.99;70.30;52134.22;5076390;28;19976;-66
2023/06/13 00:08:43;;;;;;;;;;;;;;;-144.99;70.07;52162.75;5079549;28;19938;-66
2023/06/13 00:11:10;;;;;;;;;;;;;;;-144.99;69.89;52134.22;5075171;28;20286;-66
2023/06/13 00:13:38;;;;;;;;;;;;;;;-144.99;69.88;52107.72;5076606;28;19969;-69
2023/06/13 00:16:05;;;;;;;;;;;;;;;-144.99;69.50;52142.38;5073827;28;19947;-69
2023/06/13 00:18:32;;;;;;;;;;;;;;;-144.99;69.31;52158.66;5082004;28;20424;-65
2023/06/13 00:20:59;;;;;;;;;;;;;;;-144.99;69.21;52142.38;5083982;28;19951;-66
2023/06/13 00:23:26;;;;;;;;;;;;;;;-144.99;69.21;52181.09;5075469;28;19946;-69
2023/06/13 00:25:54;;;;;;;;;;;;;;;-144.99;69.05;52142.38;5092059;28;20030;-67
2023/06/13 00:28:21;;;;;;;;;;;;;;;-144.99;68.45;52146.44;5076183;28;19965;-67
2023/06/13 00:30:48;;;;;;;;;;;;;;;-144.99;67.68;52138.28;5071755;28;19968;-67
2023/06/13 00:33:16;;;;;;;;;;;;;;;-144.99;67.79;52152.56;5077514;28;19944;-66
2023/06/13 00:35:43;;;;;;;;;;;;;;;-144.99;68.33;52124.03;5078262;28;19959;-67
2023/06/13 00:38:10;;;;;;;;;;;;;;;-144.99;68.43;52148.47;5085546;28;20520;-72
2023/06/13 00:40:37;;;;;;;;;;;;;;;-144.99;68.64;52138.28;5078586;28;19956;-72
2023/06/13 00:43:06;;;;;;;;;;;;;;;-144.99;68.58;52146.44;5083505;28;19942;-74
2023/06/13 00:45:33;;;;;;;;;;;;;;;-144.99;68.86;52152.56;5075677;28;19947;-71
2023/06/13 00:48:02;;;;;;;;;;;;;;;-144.99;68.85;52130.13;5084602;28;19947;-72
2023/06/13 00:50:32;;;;;;;;;;;;;;;-144.99;69.14;52158.66;5077519;28;20433;-67
2023/06/13 00:53:00;;;;;;;;;;;;;;;-144.99;69.31;52138.28;5079004;28;19938;-68
2023/06/13 00:55:27;;;;;;;;;;;;;;;-144.99;69.46;52113.84;5077550;28;20007;-68
2023/06/13 00:57:55;;;;;;;;;;;;;;;-144.99;69.63;52187.19;5078800;28;19974;-67
2023/06/13 01:00:26;;;;;;;;;;;;;;;-144.99;70.02;52134.22;5078014;28;19958;-67
2023/06/13 01:02:55;;;;;;;;;;;;;;;-144.99;69.93;52166.81;5075883;28;19953;-67
2023/06/13 01:05:28;;;;;;;;;;;;;;;-144.99;70.21;52124.03;5077293;28;20508;-68
2023/06/13 01:07:57;;;;;;;;;;;;;;;-144.99;70.78;52170.91;5086098;28;20033;-68
2023/06/13 01:10:24;;;;;;;;;;;;;;;-144.99;71.11;52148.47;5081383;28;19960;-68
2023/06/13 01:12:57;;;;;;;;;;;;;;;-144.99;71.64;52134.22;5084053;28;19964;-68
2023/06/13 01:15:25;;;;;;;;;;;;;;;-144.99;72.64;52138.28;5077649;28;19973;-68
2023/06/13 01:17:57;;;;;;;;;;;;;;;-144.99;72.90;52174.97;5081750;28;20035;-68
2023/06/13 01:20:26;;;;;;;;;;;;;;;-144.99;73.22;52146.44;5083345;28;20373;-68
2023/06/13 01:22:57;;;;;;;;;;;;;;;-144.99;73.42;52162.75;5073654;28;19958;-68
2023/06/13 01:25:30;;;;;;;;;;;;;;;-144.99;73.47;52166.81;5081571;28;19939;-67
2023/06/13 01:27:59;;;;;;;;;;;;;;;-144.99;73.11;52179.06;5073430;28;19949;-67
2023/06/13 01:30:26;;;;;;;;;;;;;;;-144.99;73.59;52187.19;5080824;28;19963;-68
2023/06/13 01:32:54;;;;;;;;;;;;;;;-144.99;73.84;52166.81;5077116;28;19938;-68
2023/06/13 01:35:22;;;;;;;;;;;;;;;-144.99;73.81;52179.06;5082305;28;19987;-68
2023/06/13 01:37:49;;;;;;;;;;;;;;;-144.99;72.35;52174.97;5085541;28;20399;-67
2023/06/13 01:40:15;;;;;;;;;;;;;;;-144.99;71.95;52158.66;5084961;28;19963;-67
2023/06/13 01:42:42;;;;;;;;;;;;;;;-144.99;72.93;52170.91;5083279;28;19945;-68
2023/06/13 01:45:11;;;;;;;;;;;;;;;-144.99;73.45;52170.91;5074938;28;19944;-72
2023/06/13 01:47:42;;;;;;;;;;;;;;;-144.99;73.70;52170.91;5101616;28;19951;-84
2023/06/13 01:50:16;;;;;;;;;;;;;;;-144.99;73.54;52158.66;5109321;28;20046;-83
2023/06/13 01:52:46;;;;;;;;;;;;;;;-144.99;74.01;52146.44;5106107;27;19988;-79
2023/06/13 01:55:16;;;;;;;;;;;;;;;-144.99;74.14;52183.13;5086092;28;19956;-68
2023/06/13 01:57:45;;;;;;;;;;;;;;;-144.99;74.44;52126.06;5079111;28;19936;-68
2023/06/13 02:00:15;;;;;;;;;;;;;;;-144.99;74.21;52146.44;5083631;28;20062;-68
2023/06/13 02:02:42;;;;;;;;;;;;;;;-144.99;74.36;52156.63;5083097;28;19945;-66
2023/06/13 02:05:09;;;;;;;;;;;;;;;-144.99;74.35;52138.28;5085776;28;19936;-70
2023/06/13 02:07:36;;;;;;;;;;;;;;;-144.99;74.09;52170.91;5084994;28;19945;-68
2023/06/13 02:10:05;;;;;;;;;;;;;;;-144.99;74.13;52158.66;5072274;28;19966;-69
2023/06/13 02:12:31;;;;;;;;;;;;;;;-144.99;74.27;52146.44;5083401;28;19948;-68
2023/06/13 02:14:59;;;;;;;;;;;;;;;-144.99;74.35;52117.91;5075963;28;20056;-68
2023/06/13 02:17:27;;;;;;;;;;;;;;;-144.99;74.28;52166.81;5084547;28;19945;-67
2023/06/13 02:19:54;;;;;;;;;;;;;;;-144.99;74.46;52158.66;5086000;28;19985;-67
2023/06/13 02:22:20;;;;;;;;;;;;;;;-144.99;74.84;52158.66;5081400;28;19947;-66
2023/06/13 02:24:47;;;;;;;;;;;;;;;-144.99;75.08;52191.28;5081424;28;19940;-67
2023/06/13 02:27:14;;;;;;;;;;;;;;;-144.99;75.76;52195.34;5079154;28;20059;-68
2023/06/13 02:29:40;;;;;;;;;;;;;;;-144.99;75.72;52177.00;5082219;28;19963;-68
2023/06/13 02:32:07;;;;;;;;;;;;;;;-144.99;76.25;52191.28;5092093;28;19959;-65
2023/06/13 02:34:35;;;;;;;;;;;;;;;-144.99;76.70;52158.66;5087655;28;20065;-67
2023/06/13 02:37:02;;;;;;;;;;;;;;;-144.99;76.96;52189.25;5090514;28;19946;-69
2023/06/13 02:39:29;;;;;;;;;;;;;;;-144.99;76.09;52136.25;5081985;28;19960;-65
2023/06/13 02:41:55;;;;;;;;;;;;;;;-144.99;76.16;52156.63;5090519;28;20410;-65
2023/06/13 02:44:22;;;;;;;;;;;;;;;-144.99;76.41;52170.91;5080171;28;20030;-64
2023/06/13 02:46:48;;;;;;;;;;;;;;;-144.99;76.83;52121.97;5094358;28;19939;-70
2023/06/13 02:49:15;;;;;;;;;;;;;;;-144.99;77.26;52113.84;5099162;28;19971;-70
2023/06/13 02:51:43;;;;;;;;;;;;;;;-144.99;77.50;52146.44;5101196;28;19937;-74
2023/06/13 02:54:11;;;;;;;;;;;;;;;-144.99;77.88;52130.13;5097596;28;20044;-70
2023/06/13 02:56:38;;;;;;;;;;;;;;;-144.99;79.64;52166.81;5100286;28;19962;-70
2023/06/13 02:59:05;;;;;;;;;;;;;;;-144.99;80.76;52126.06;5094257;28;19972;-64
2023/06/13 03:01:31;;;;;;;;;;;;;;;-144.99;81.54;52183.13;5078086;28;19948;-63
2023/06/13 03:03:58;;;;;;;;;;;;;;;-144.99;83.12;52174.97;5078331;28;19938;-66
2023/06/13 03:06:26;;;;;;;;;;;;;;;-144.99;84.45;52162.75;5079362;28;20315;-65
2023/06/13 03:08:57;;;;;;;;;;;;;;;-144.99;85.10;52158.66;5084761;28;20013;-65
2023/06/13 03:11:24;;;;;;;;;;;;;;;-144.99;85.74;52172.94;5083056;28;20021;-65
2023/06/13 03:13:51;;;;;;;;;;;;;;;-144.99;86.72;52154.59;5091868;28;19972;-66
2023/06/13 03:16:18;;;;;;;;;;;;;;;-144.99;87.00;52138.28;5081605;28;19965;-65
2023/06/13 03:18:45;;;;;;;;;;;;;;;-144.99;87.48;52150.53;5078259;28;19964;-65
2023/06/13 03:21:12;;;;;;;;;;;;;;;-144.99;88.16;52187.19;5082557;28;19940;-66
2023/06/13 03:23:38;;;;;;;;;;;;;;;-144.99;88.37;52174.97;5077629;28;20325;-64
2023/06/13 03:26:09;;;;;;;;;;;;;;;-144.99;89.04;52154.59;5081117;28;19948;-69
2023/06/13 03:28:36;;;;;;;;;;;;;;;-144.99;89.70;52146.44;5077054;28;19948;-68
2023/06/13 03:31:04;;;;;;;;;;;;;;;-144.99;89.74;52130.13;5086971;28;19970;-67
2023/06/13 03:33:30;;;;;;;;;;;;;;;-144.99;90.05;52126.06;5089425;28;20029;-67
2023/06/13 03:35:57;;;;;;;;;;;;;;;-144.99;90.28;52154.59;5083732;28;19957;-66
2023/06/13 03:38:23;;;;;;;;;;;;;;;-144.99;90.49;52148.47;5076468;28;19976;-71
2023/06/13 03:40:50;;;;;;;;;;;;;;;-144.99;90.67;52150.53;5077008;28;20461;-71
2023/06/13 03:43:18;;;;;;;;;;;;;;;-144.99;90.93;52130.13;5085433;28;19949;-69
2023/06/13 03:45:45;;;;;;;;;;;;;;;-144.99;90.32;52162.75;5081872;28;20423;-69
2023/06/13 03:48:11;;;;;;;;;;;;;;;-144.99;91.79;52179.06;5084519;28;20002;-70
2023/06/13 03:50:38;;;;;;;;;;;;;;;-144.99;92.00;52166.81;5082197;28;20048;-65
2023/06/13 03:53:05;;;;;;;;;;;;;;;-144.99;92.07;52142.38;5072256;28;19945;-68
2023/06/13 03:55:31;;;;;;;;;;;;;;;-144.99;92.55;52170.91;5082326;28;19971;-68
2023/06/13 03:57:58;;;;;;;;;;;;;;;-144.99;92.52;52174.97;5078484;28;19982;-68
2023/06/13 04:00:26;;;;;;;;;;;;;;;-144.99;92.57;52134.22;5077149;28;19969;-68
2023/06/13 04:02:53;;;;;;;;;;;;;;;-144.99;92.86;52164.78;5080579;28;20406;-68
2023/06/13 04:05:21;;;;;;;;;;;;;;;-144.99;92.91;52154.59;5084301;28;19987;-67
2023/06/13 04:07:48;;;;;;;;;;;;;;;-144.99;92.70;52138.28;5080469;28;20017;-68
2023/06/13 04:10:14;;;;;;;;;;;;;;;-144.99;92.62;52170.91;5085411;28;19961;-69
2023/06/13 04:12:43;;;;;;;;;;;;;;;-144.99;92.58;52160.72;5077899;28;19947;-77
2023/06/13 04:15:10;;;;;;;;;;;;;;;-144.99;91.18;52101.59;5089403;28;19940;-78
2023/06/13 04:17:38;;;;;;;;;;;;;;;-144.99;91.20;52117.91;5087171;28;19953;-75
2023/06/13 04:20:06;;;;;;;;;;;;;;;-144.99;91.41;52158.66;5088182;28;19957;-75
2023/06/13 04:22:32;;;;;;;;;;;;;;;-144.99;91.58;52105.69;5081456;28;20017;-74
2023/06/13 04:25:00;;;;;;;;;;;;;;;-144.99;91.57;52117.91;5084652;28;19972;-67
2023/06/13 04:27:28;;;;;;;;;;;;;;;-144.99;91.20;52183.13;5083092;28;20388;-66
2023/06/13 04:29:55;;;;;;;;;;;;;;;-144.99;91.30;52146.44;5074978;28;19958;-67
2023/06/13 04:32:23;;;;;;;;;;;;;;;-144.99;91.28;52134.22;5078357;28;19942;-66
2023/06/13 04:34:55;;;;;;;;;;;;;;;-144.99;91.02;52154.59;5074039;28;20344;-69
2023/06/13 04:37:23;;;;;;;;;;;;;;;-144.99;90.93;52121.97;5082272;28;20058;-69
2023/06/13 04:39:50;;;;;;;;;;;;;;;-144.99;90.46;52091.41;5075362;28;19961;-71
2023/06/13 04:42:24;;;;;;;;;;;;;;;-144.99;90.30;52093.44;5092026;28;19947;-69
2023/06/13 04:44:52;;;;;;;;;;;;;;;-144.99;89.83;52109.75;5069910;28;19949;-69
2023/06/13 04:47:19;;;;;;;;;;;;;;;-144.99;90.08;52126.06;5081747;28;19989;-70
2023/06/13 04:49:46;;;;;;;;;;;;;;;-144.99;89.55;52146.44;5075630;28;20056;-73
2023/06/13 04:52:14;;;;;;;;;;;;;;;-144.99;88.93;52126.06;5087388;28;19939;-73
2023/06/13 04:54:41;;;;;;;;;;;;;;;-144.99;88.84;52099.56;5073286;28;19938;-70
2023/06/13 04:57:08;;;;;;;;;;;;;;;-144.99;88.49;52097.53;5081709;28;19951;-68
2023/06/13 04:59:34;;;;;;;;;;;;;;;-144.99;87.74;52101.59;5086274;28;20429;-67
2023/06/13 05:02:01;;;;;;;;;;;;;;;-144.99;87.71;52097.53;5085531;28;19938;-66
2023/06/13 05:04:28;;;;;;;;;;;;;;;-144.99;87.42;52109.75;5081529;28;19947;-66
2023/06/13 05:06:55;;;;;;;;;;;;;;;-144.99;87.28;52069.00;5081049;28;19941;-66
2023/06/13 05:09:22;;;;;;;;;;;;;;;-144.99;87.03;52109.75;5086595;28;20055;-66
2023/06/13 05:11:49;;;;;;;;;;;;;;;-144.99;86.98;52142.38;5076298;28;19932;-60
2023/06/13 05:14:16;;;;;;;;;;;;;;;-144.99;86.26;52069.00;5077156;28;19970;-60
2023/06/13 05:16:43;;;;;;;;;;;;;;;-144.99;85.84;52069.00;5076947;28;20000;-60
2023/06/13 05:19:10;;;;;;;;;;;;;;;-144.99;85.35;52081.22;5080470;28;20361;-61
2023/06/13 05:21:37;;;;;;;;;;;;;;;-144.99;85.09;52093.44;5081446;28;19936;-60
2023/06/13 05:24:04;;;;;;;;;;;;;;;-144.99;83.48;52060.84;5074288;28;19975;-60
2023/06/13 05:26:33;;;;;;;;;;;;;;;-144.99;83.71;52077.16;5082616;28;20403;-61
2023/06/13 05:29:00;;;;;;;;;;;;;;;-144.99;84.21;52081.22;5073772;28;20046;-61
2023/06/13 05:31:27;;;;;;;;;;;;;;;-144.99;83.81;52085.31;4723287;28;9999746;-60
2023/06/13 05:33:54;;;;;;;;;;;;;;;-144.99;83.77;52069.00;5072079;28;20180;-60
2023/06/13 05:36:21;;;;;;;;;;;;;;;-144.99;83.24;52073.06;5075851;28;20670;-61
2023/06/13 05:38:48;;;;;;;;;;;;;;;-144.99;83.75;52050.66;5066892;28;20339;-61
2023/06/13 05:41:15;;;;;;;;;;;;;;;-144.99;83.83;52109.75;5073468;28;20304;-66
2023/06/13 05:43:43;;;;;;;;;;;;;;;-144.99;83.51;52107.72;5070127;28;20013;-63
2023/06/13 05:46:09;;;;;;;;;;;;;;;-144.99;83.82;52073.06;5067841;28;20226;-64
2023/06/13 05:48:36;;;;;;;;;;;;;;;-144.99;84.61;52093.44;5073277;28;19954;-63
2023/06/13 05:51:05;;;;;;;;;;;;;;;-144.99;84.57;52085.31;5073972;28;19953;-64
2023/06/13 05:53:31;;;;;;;;;;;;;;;-144.99;85.19;52103.66;5075035;28;19944;-64
2023/06/13 05:55:58;;;;;;;;;;;;;;;-144.99;84.43;52089.38;5064946;28;20229;-66
2023/06/13 05:58:24;;;;;;;;;;;;;;;-144.99;84.62;52121.97;5066150;28;19951;-65
2023/06/13 06:00:53;;;;;;;;;;;;;;;-144.99;84.81;52101.59;5073620;28;19944;-63
2023/06/13 06:03:20;;;;;;;;;;;;;;;-144.99;84.87;52105.69;5076331;28;19948;-66
2023/06/13 06:05:48;;;;;;;;;;;;;;;-144.99;83.85;52109.75;5076416;28;19932;-66
2023/06/13 06:08:15;;;;;;;;;;;;;;;-144.99;83.76;52073.06;5074570;28;19941;-66
2023/06/13 06:10:41;;;;;;;;;;;;;;;-144.99;81.37;52073.06;5075867;28;19972;-66
2023/06/13 06:13:08;;;;;;;;;;;;;;;-144.99;81.58;52052.69;5064067;28;19941;-66
2023/06/13 06:15:35;;;;;;;;;;;;;;;-144.99;80.24;52069.00;5071125;28;19946;-65
2023/06/13 06:18:03;;;;;;;;;;;;;;;-144.99;78.91;52056.78;5070100;28;20401;-64
2023/06/13 06:20:30;;;;;;;;;;;;;;;-144.99;79.01;52097.53;5065887;28;20162;-64
2023/06/13 06:22:57;;;;;;;;;;;;;;;-144.99;77.05;52058.81;5067338;28;20332;-65
2023/06/13 06:25:24;;;;;;;;;;;;;;;-144.99;77.65;52069.00;5064313;28;19971;-64
2023/06/13 06:27:51;;;;;;;;;;;;;;;-144.99;77.72;52085.31;5069948;28;19940;-64
2023/06/13 06:30:18;;;;;;;;;;;;;;;-144.99;77.35;52091.41;5074174;28;20018;-65
2023/06/13 06:32:44;;;;;;;;;;;;;;;-144.99;76.73;52089.38;5070372;28;19944;-65
2023/06/13 06:35:14;;;;;;;;;;;;;;;-144.99;75.97;52066.97;5075731;28;20011;-66
2023/06/13 06:37:42;;;;;;;;;;;;;;;-144.99;75.85;52052.69;5070405;28;20039;-65
2023/06/13 06:40:09;;;;;;;;;;;;;;;-144.99;75.72;52048.63;5064886;28;20060;-65
2023/06/13 06:42:36;;;;;;;;;;;;;;;-144.99;75.07;52085.31;5064211;28;19943;-65
2023/06/13 06:45:03;;;;;;;;;;;;;;;-144.99;74.32;52069.00;5074576;28;20011;-66
2023/06/13 06:47:29;;;;;;;;;;;;;;;-144.99;73.54;52036.38;5074801;28;19944;-66
2023/06/13 06:49:56;;;;;;;;;;;;;;;-144.99;73.35;52079.19;5085965;28;20421;-66
2023/06/13 06:52:24;;;;;;;;;;;;;;;-144.99;72.88;52081.22;4730939;28;9999996;-65
2023/06/13 06:54:51;;;;;;;;;;;;;;;-144.99;72.46;52040.47;5078357;28;20000;-66
2023/06/13 06:57:17;;;;;;;;;;;;;;;-144.99;71.99;52032.31;5073450;28;19954;-65
2023/06/13 06:59:44;;;;;;;;;;;;;;;-144.99;71.46;52073.06;5069147;28;19956;-65
2023/06/13 07:02:11;;;;;;;;;;;;;;;-144.99;71.27;52022.13;5078296;28;19943;-64
2023/06/13 07:04:37;;;;;;;;;;;;;;;-144.99;70.83;52034.34;5082212;28;19945;-64
2023/06/13 07:07:04;;;;;;;;;;;;;;;-144.99;70.60;52064.91;5077926;28;20372;-64
2023/06/13 07:09:32;;;;;;;;;;;;;;;-144.99;70.62;52032.31;5076603;28;19960;-64
2023/06/13 07:11:59;;;;;;;;;;;;;;;-144.99;70.66;52058.81;5083492;28;19942;-63
2023/06/13 07:14:26;;;;;;;;;;;;;;;-144.99;70.50;52038.44;5075175;28;19959;-63
2023/06/13 07:16:54;;;;;;;;;;;;;;;-144.99;70.09;52040.47;5075960;28;19954;-63
2023/06/13 07:19:20;;;;;;;;;;;;;;;-144.99;70.17;52052.69;5079341;28;19962;-63
2023/06/13 07:21:47;;;;;;;;;;;;;;;-144.99;70.06;52075.09;5076719;28;19942;-63
2023/06/13 07:24:14;;;;;;;;;;;;;;;-144.99;69.93;52036.38;5075190;28;19948;-63
2023/06/13 07:26:42;;;;;;;;;;;;;;;-144.99;69.71;51997.66;5074152;28;20311;-63
2023/06/13 07:29:08;;;;;;;;;;;;;;;-144.99;69.05;52036.38;5076502;28;20432;-63
2023/06/13 07:31:35;;;;;;;;;;;;;;;-144.99;68.73;52007.84;5081971;28;19946;-64
2023/06/13 07:34:01;;;;;;;;;;;;;;;-144.99;68.73;52016.00;5081080;28;19951;-64
2023/06/13 07:36:28;;;;;;;;;;;;;;;-144.99;68.32;52036.38;5076362;28;20459;-63
2023/06/13 07:38:54;;;;;;;;;;;;;;;-144.99;68.93;52040.47;5076914;28;19975;-64
2023/06/13 07:41:21;;;;;;;;;;;;;;;-144.99;68.86;52024.16;5077967;28;19945;-63
2023/06/13 07:43:49;;;;;;;;;;;;;;;-144.99;68.90;52022.13;5074427;28;19943;-64
2023/06/13 07:46:16;;;;;;;;;;;;;;;-144.99;68.59;51987.47;5077347;28;20320;-63
2023/06/13 07:48:45;;;;;;;;;;;;;;;-144.99;68.50;52030.28;5075522;28;19943;-63
2023/06/13 07:51:13;;;;;;;;;;;;;;;-144.99;68.12;52003.78;5079965;28;19953;-63
2023/06/13 07:53:40;;;;;;;;;;;;;;;-144.99;68.11;52001.75;5068759;28;19996;-63
2023/06/13 07:56:07;;;;;;;;;;;;;;;-144.99;68.20;51995.63;5076060;28;20344;-63
2023/06/13 07:58:34;;;;;;;;;;;;;;;-144.99;68.16;51991.56;5070762;28;19945;-63
2023/06/13 08:01:03;;;;;;;;;;;;;;;-144.99;67.85;51938.56;5072667;28;19981;-63
2023/06/13 08:03:29;;;;;;;;;;;;;;;-144.99;67.36;51999.69;5075094;28;19942;-63
2023/06/13 08:05:56;;;;;;;;;;;;;;;-144.99;67.25;51983.41;5092562;28;20036;-63
2023/06/13 08:08:23;;;;;;;;;;;;;;;-144.99;67.55;52028.22;5079277;28;19951;-63
2023/06/13 08:10:49;;;;;;;;;;;;;;;-144.99;67.44;52011.94;5080798;28;20326;-63
2023/06/13 08:13:16;;;;;;;;;;;;;;;-144.99;67.05;52003.78;5073352;28;19993;-64
2023/06/13 08:15:43;;;;;;;;;;;;;;;-144.99;66.09;51987.47;5070443;28;19967;-64
2023/06/13 08:18:11;;;;;;;;;;;;;;;-144.99;65.89;51975.25;5079431;28;20032;-63
2023/06/13 08:20:37;;;;;;;;;;;;;;;-144.99;66.39;51965.06;5067502;28;19957;-64
2023/06/13 08:23:04;;;;;;;;;;;;;;;-144.99;66.22;52032.31;5067649;28;19941;-64
2023/06/13 08:25:30;;;;;;;;;;;;;;;-144.99;66.47;52007.84;5072066;28;20377;-64
2023/06/13 08:27:57;;;;;;;;;;;;;;;-144.99;66.29;51999.69;5070763;28;19966;-63
2023/06/13 08:30:24;;;;;;;;;;;;;;;-144.99;65.96;51971.16;5064380;28;20018;-63
2023/06/13 08:32:52;;;;;;;;;;;;;;;-144.99;66.02;52003.78;5068306;28;19945;-63
2023/06/13 08:35:20;;;;;;;;;;;;;;;-144.99;65.69;52007.84;5061089;28;19952;-64
2023/06/13 08:37:47;;;;;;;;;;;;;;;-144.99;66.21;52007.84;5075671;28;20416;-63
2023/06/13 08:40:16;;;;;;;;;;;;;;;-144.99;65.72;52003.78;5062888;28;19977;-63
2023/06/13 08:42:43;;;;;;;;;;;;;;;-144.99;65.76;51991.56;5071942;28;19938;-64
2023/06/13 08:45:10;;;;;;;;;;;;;;;-144.99;65.33;51991.56;5066787;28;20046;-63
2023/06/13 08:47:38;;;;;;;;;;;;;;;-144.99;64.33;51967.09;5074290;28;19940;-64
2023/06/13 08:50:05;;;;;;;;;;;;;;;-144.99;63.99;51971.16;5060702;28;19957;-64
2023/06/13 08:52:38;;;;;;;;;;;;;;;-144.99;63.75;51971.16;5066784;28;19985;-64
2023/06/13 08:55:07;;;;;;;;;;;;;;;-144.99;63.89;51979.31;5062612;28;20255;-65
2023/06/13 08:57:36;;;;;;;;;;;;;;;-144.99;64.12;51979.31;5065156;28;20000;-64
2023/06/13 09:00:06;;;;;;;;;;;;;;;-144.99;64.44;51971.16;5063620;28;20053;-64
2023/06/13 09:02:33;;;;;;;;;;;;;;;-144.99;64.24;52003.78;5063636;28;19939;-64
2023/06/13 09:05:00;;;;;;;;;;;;;;;-144.99;63.54;51997.66;5064979;28;20128;-64
2023/06/13 09:07:27;;;;;;;;;;;;;;;-144.99;63.69;51954.88;5064551;28;20360;-64
2023/06/13 09:09:55;;;;;;;;;;;;;;;-144.99;63.04;51971.16;5074067;28;20225;-64
2023/06/13 09:12:22;;;;;;;;;;;;;;;-144.99;63.28;51946.72;5072045;28;19955;-64
2023/06/13 09:14:49;;;;;;;;;;;;;;;-144.99;63.34;51958.94;5070765;28;19949;-64
2023/06/13 09:17:16;;;;;;;;;;;;;;;-144.99;63.55;51950.78;5069556;28;19960;-64
2023/06/13 09:19:42;;;;;;;;;;;;;;;-144.99;63.48;51958.94;5070223;28;20262;-64
2023/06/13 09:22:09;;;;;;;;;;;;;;;-144.99;63.47;51922.25;5082727;28;19969;-65
2023/06/13 09:24:36;;;;;;;;;;;;;;;-144.99;64.16;51969.13;5073491;28;19977;-64
2023/06/13 09:27:04;;;;;;;;;;;;;;;-144.99;63.98;51950.78;5074844;28;20322;-65
2023/06/13 09:29:32;;;;;;;;;;;;;;;-144.99;63.48;51950.78;5067075;28;20492;-65
2023/06/13 09:31:58;;;;;;;;;;;;;;;-144.99;63.08;51938.56;5078152;28;19941;-65
2023/06/13 09:34:26;;;;;;;;;;;;;;;-144.99;63.46;51971.16;5077259;28;19965;-65
2023/06/13 09:36:53;;;;;;;;;;;;;;;-144.99;62.85;51969.13;5080776;28;20297;-65
2023/06/13 09:39:20;;;;;;;;;;;;;;;-144.99;62.72;51977.28;5071432;28;19966;-65
2023/06/13 09:41:53;;;;;;;;;;;;;;;-144.99;62.48;51918.19;5076642;28;19941;-65
2023/06/13 09:44:21;;;;;;;;;;;;;;;-144.99;62.49;51910.03;5077625;28;19950;-64
2023/06/13 09:46:50;;;;;;;;;;;;;;;-144.99;62.36;51918.19;5077986;28;19948;-65
2023/06/13 09:49:17;;;;;;;;;;;;;;;-144.99;61.77;51910.03;5072311;28;19959;-65
2023/06/13 09:51:44;;;;;;;;;;;;;;;-144.99;61.59;51895.75;5079203;28;20001;-65
2023/06/13 09:54:10;;;;;;;;;;;;;;;-144.99;61.37;51901.88;5076015;28;19943;-66
2023/06/13 09:56:37;;;;;;;;;;;;;;;-144.99;60.88;51918.19;5082739;28;19944;-66
2023/06/13 09:59:04;;;;;;;;;;;;;;;-144.99;60.56;51922.25;5076448;28;20507;-65
2023/06/13 10:01:34;;;;;;;;;;;;;;;-144.99;60.98;51926.34;5070539;28;19950;-65
2023/06/13 10:04:01;;;;;;;;;;;;;;;-144.99;60.73;51942.63;5082941;28;20091;-65
2023/06/13 10:06:29;;;;;;;;;;;;;;;-144.99;60.84;51918.19;5073492;28;19939;-66
2023/06/13 10:08:55;;;;;;;;;;;;;;;-144.99;60.48;51899.84;5084200;28;19989;-65
2023/06/13 10:11:24;;;;;;;;;;;;;;;-144.99;60.12;51924.28;5092291;28;19951;-65
2023/06/13 10:13:56;;;;;;;;;;;;;;;-144.99;59.62;51910.03;5071924;28;19951;-66
2023/06/13 10:16:23;;;;;;;;;;;;;;;-144.99;59.92;51891.69;5080166;28;20041;-66
2023/06/13 10:18:53;;;;;;;;;;;;;;;-144.99;59.91;51934.50;5075024;28;19958;-65
2023/06/13 10:21:21;;;;;;;;;;;;;;;-144.99;60.10;51885.56;5078425;28;19945;-64
2023/06/13 10:23:50;;;;;;;;;;;;;;;-144.99;60.00;51897.81;5082214;28;20261;-64
2023/06/13 10:26:21;;;;;;;;;;;;;;;-144.99;59.63;51865.19;5078705;28;20468;-64
2023/06/13 10:28:58;;;;;;;;;;;;;;;-144.99;58.73;51881.50;5073080;28;20431;-65
2023/06/13 10:31:32;;;;;;;;;;;;;;;-144.99;58.35;51889.66;5080425;28;20349;-65
2023/06/13 10:34:07;;;;;;;;;;;;;;;-144.99;58.81;51905.97;5079399;28;19948;-65
2023/06/13 10:36:43;;;;;;;;;;;;;;;-144.99;57.51;51824.44;5080197;28;20555;-65
2023/06/13 10:39:22;;;;;;;;;;;;;;;-144.99;57.73;51861.13;5083932;28;19979;-65
2023/06/13 10:41:52;;;;;;;;;;;;;;;-144.99;58.27;51850.94;5079440;28;19950;-65
2023/06/13 10:44:22;;;;;;;;;;;;;;;-144.99;57.42;51848.91;5069306;28;19945;-65
2023/06/13 10:46:49;;;;;;;;;;;;;;;-144.99;56.08;51885.56;5075947;28;19943;-66
2023/06/13 10:49:17;;;;;;;;;;;;;;;-144.99;56.52;51873.34;5083509;28;19971;-66
2023/06/13 10:51:46;;;;;;;;;;;;;;;-144.99;56.87;51920.22;5082293;28;20416;-66
2023/06/13 10:54:14;;;;;;;;;;;;;;;-144.99;57.24;51901.88;5073601;28;19942;-67
2023/06/13 10:56:43;;;;;;;;;;;;;;;-144.99;57.22;51857.03;5079468;28;20248;-67
2023/06/13 10:59:11;;;;;;;;;;;;;;;-144.99;56.84;51873.34;5069717;28;20057;-65
2023/06/13 11:01:38;;;;;;;;;;;;;;;-144.99;55.23;51873.34;5079089;28;19945;-66
2023/06/13 11:04:08;;;;;;;;;;;;;;;-144.99;55.06;51861.13;5075296;28;19942;-66
2023/06/13 11:06:36;;;;;;;;;;;;;;;-144.99;55.17;51865.19;5077632;28;20297;-66
2023/06/13 11:09:09;;;;;;;;;;;;;;;-144.99;55.31;51848.91;5079247;28;20056;-66
2023/06/13 11:11:39;;;;;;;;;;;;;;;-144.99;55.21;51873.34;5076882;28;19978;-66
2023/06/13 11:14:07;;;;;;;;;;;;;;;-144.99;55.51;51836.66;5077160;28;20043;-66
2023/06/13 11:16:38;;;;;;;;;;;;;;;-144.99;55.39;51875.38;5079357;28;19962;-66
2023/06/13 11:19:06;;;;;;;;;;;;;;;-144.99;56.08;51889.66;5081951;28;20053;-66
2023/06/13 11:21:33;;;;;;;;;;;;;;;-144.99;57.17;51930.41;5078563;28;20901;-66
2023/06/13 11:24:01;;;;;;;;;;;;;;;-144.99;57.03;51869.28;5079841;28;19980;-65
2023/06/13 11:26:28;;;;;;;;;;;;;;;-144.99;56.98;51877.44;5078675;28;19950;-66
2023/06/13 11:28:55;;;;;;;;;;;;;;;-144.99;56.83;51844.81;5073845;28;19971;-66
2023/06/13 11:31:22;;;;;;;;;;;;;;;-144.99;56.37;51873.34;5082967;28;19947;-66
2023/06/13 11:33:49;;;;;;;;;;;;;;;-144.99;56.76;51848.91;5082268;28;19943;-66
2023/06/13 11:36:17;;;;;;;;;;;;;;;-144.99;56.79;51885.56;5078312;28;20285;-66
2023/06/13 11:38:45;;;;;;;;;;;;;;;-144.99;57.87;51918.19;5080240;28;20015;-67
2023/06/13 11:41:13;;;;;;;;;;;;;;;-144.99;57.55;51861.13;5079208;28;20376;-65
2023/06/13 11:43:40;;;;;;;;;;;;;;;-144.99;57.40;51871.31;5076115;28;20027;-66
2023/06/13 11:46:06;;;;;;;;;;;;;;;-144.99;56.95;51865.19;5075157;28;20043;-66
2023/06/13 11:48:33;;;;;;;;;;;;;;;-144.99;56.61;51857.03;5079155;28;20386;-65
2023/06/13 11:51:09;;;;;;;;;;;;;;;-144.99;56.33;51865.19;5080077;28;19951;-66
2023/06/13 11:53:46;;;;;;;;;;;;;;;-144.99;56.57;51838.72;5074516;28;19944;-66
2023/06/13 11:56:15;;;;;;;;;;;;;;;-144.99;56.50;51869.28;5078927;28;19940;-66
2023/06/13 11:58:42;;;;;;;;;;;;;;;-144.99;57.09;51852.97;5081598;28;20522;-67
2023/06/13 12:01:13;;;;;;;;;;;;;;;-144.99;56.78;51848.91;5083143;28;19941;-67
2023/06/13 12:03:40;;;;;;;;;;;;;;;-144.99;56.40;51799.97;5075671;28;20015;-67
2023/06/13 12:06:07;;;;;;;;;;;;;;;-144.99;56.13;51885.56;5084886;28;20420;-67
2023/06/13 12:08:34;;;;;;;;;;;;;;;-144.99;56.54;51820.38;5072825;28;19951;-66
2023/06/13 12:11:03;;;;;;;;;;;;;;;-144.99;58.10;51899.84;5078439;28;20358;-66
2023/06/13 12:13:31;;;;;;;;;;;;;;;-144.99;58.54;51926.34;5079488;28;20131;-66
2023/06/13 12:15:57;;;;;;;;;;;;;;;-144.99;58.35;51910.03;5080480;28;19945;-66
2023/06/13 12:18:24;;;;;;;;;;;;;;;-144.99;58.30;51914.09;5078314;28;19963;-66
2023/06/13 12:20:53;;;;;;;;;;;;;;;-144.99;58.43;51946.72;5082086;28;19956;-66
2023/06/13 12:23:20;;;;;;;;;;;;;;;-144.99;58.67;51914.09;5088869;28;20274;-65
2023/06/13 12:25:47;;;;;;;;;;;;;;;-144.99;59.30;51910.03;5075484;28;19945;-65
2023/06/13 12:28:15;;;;;;;;;;;;;;;-144.99;58.89;51930.41;5073404;28;19944;-66